Airfield :
LOGIN :

Register | Disclaimer

   EN    FR    IT 

 










Legend :    VFR   Marginal VFR   IFR   Intensive IFR   Very Intensive IFR
Visi :
Ceiling :
>= 8 km
>= 3000ft
5 to 8 km
1000 to 3000 ft
1500m to 5 km
500 to 1000 ft
800 to 1500m
200 to 500 ft
< 800m
< 200 ft
Symbols :   Thunderstorms  Fog  Heavy snow  Heavy precipitations  Wind > 20 kt
SIGMETs :     Misc.  Thunderstorms  Icing  Turbulence  Mountain Waves  Volcanic Ashes







- Airport Elevation : 287 ft
- Download approach charts


LFRL - Lanveoc Poulmic

CURRENT METAR :
  • 151230Z AUTO 34008KT 320V040 9999 OVC007 13/12 Q1010 TEMPO BKN010

EXPIRED METARs :
  • 151200Z AUTO 35007KT 330V030 9999 OVC007 13/12 Q1010 NOSIG
  • 151130Z AUTO 33008KT 9999 OVC005 13/12 Q1010 BECMG BKN010
  • 151100Z AUTO 34007KT 310V010 9999 OVC005 13/12 Q1010 TEMPO 2000 DZ BECMG BKN010
  • 151030Z AUTO 33008KT 9999 OVC004 13/12 Q1010 TEMPO 2000 DZ BECMG BKN010
  • 151000Z AUTO 33009KT 310V010 9999 OVC005 13/12 Q1009 TEMPO 2000 DZ

TAF TAF LFRL
Valid from the 15 at 12:00 until the 16 at 12:00 UTC


151100Z 1512/1612 34007KT 9999 OVC007
TEMPO 1514/1518 BKN010
BECMG 1519/1521 2000 BR BKN004
PROB40
TEMPO 1523/1605 0500 FG VV///
BECMG 1608/1610 BKN010
No reported NOTAMs for that airfield.



MET'MAP, your aeronautical weather chart ! - Copyright ORBIFLY December 2007 - Disclaimer

ORBIFLY MET'MAP TEAM :

Programming & Development : Alexandra Zaïnal
Concept & Development : Baudouin d'Aumeries
Co-Development & Prog : Marc-Olivier Méhu
Technical & hardware support : Manuel Goepfert

Contact : metmap@orbifly.com




SOURCES & CREDITS :

   NOAA